Terminal Aerodrome Forecast
Issued by NWS

Home | Current Version | Previous Version | Graphics & Text | Print | Product List | Glossary On
Versions: 1 2 3 4 5 6 7 8 9 10 11 12 13 14 15 16 17 18 19 20 21 22 23 24 25 26 27 28 29 30 31 32 33 34 35 36 37
000
FTUS43 KLOT 201400 AAA
TAFORD
TAF AMD
KORD 201406Z 2014/2118 30009KT P6SM SCT035
     FM201700 32011G16KT P6SM BKN035
     FM202000 35012G17KT P6SM BKN030
     FM202300 01007KT P6SM OVC030
     FM210400 35008KT P6SM BKN035
     FM211300 01011G17KT P6SM SCT025 BKN035=

USA.gov is the U.S. government's official web portal to all federal, state and local government web resources and services.